Indian Grove, Missouri
Current Conditions -  °F | °C
As of 7:15 AM on Friday 31 Oct 2014 (Local Time) from KVER Reporting Station
Scattered Clouds Scattered Clouds  
Wind Chill: 31°   Ceiling: Unl
Heat Index: 40°   Visibility: 10mi
Dew Point: 27°   Wind: 17mph
Humidity: 59%   Direction: 340°NNW
Pressure: 30.31"   Gusts: 29mph
Location:  39.4474°N, 93.0872°W
Report Text: KVER 311215Z AUTO 34015G25KT 10SM SCT032 04/M03 A3031 RMK AO2 T00441029
Loading
Personal Weather Stations






























Interactive Weather Map New forecast layout! Learn more

10-Day Weather Forecast

Advertisements
Track Severe Weather on mobile